createdAt,value
2022-08-05T00:00:35.198Z,66.76
2022-08-05T00:03:07.950Z,66.51
2022-08-05T00:06:05.341Z,66.50
2022-08-05T00:08:19.787Z,66.62
2022-08-05T00:11:00.788Z,66.35
2022-08-05T00:13:38.383Z,67.56
2022-08-05T00:16:01.246Z,66.75
2022-08-05T00:18:22.865Z,67.35
2022-08-05T00:20:44.358Z,67.22
2022-08-05T00:23:12.775Z,67.57
2022-08-05T00:25:46.166Z,68.02
2022-08-05T00:28:07.811Z,68.56
2022-08-05T00:30:34.172Z,68.35
2022-08-05T00:32:55.608Z,67.43
2022-08-05T00:35:20.297Z,67.97
2022-08-05T00:37:53.022Z,68.58
2022-08-05T00:40:17.933Z,68.54
2022-08-05T00:42:50.037Z,68.50
2022-08-05T00:45:13.559Z,69.15
2022-08-05T00:47:53.488Z,69.19
2022-08-05T00:50:17.767Z,68.32
2022-08-05T00:52:39.238Z,68.58
2022-08-05T00:55:00.796Z,69.04
2022-08-05T00:57:22.596Z,70.08
2022-08-05T00:59:48.609Z,70.06
2022-08-05T01:02:10.143Z,70.01
2022-08-05T01:04:32.935Z,71.21
2022-08-05T01:06:55.074Z,70.96
2022-08-05T01:09:17.411Z,70.16
2022-08-05T01:11:42.057Z,70.92
2022-08-05T01:14:10.039Z,70.55
2022-08-05T01:16:39.032Z,70.70
2022-08-05T01:19:12.182Z,70.96
2022-08-05T01:21:38.684Z,73.08
2022-08-05T01:24:14.209Z,71.96
2022-08-05T01:27:20.441Z,72.27
2022-08-05T01:29:49.098Z,72.06
2022-08-05T01:32:18.920Z,73.27
2022-08-05T01:35:13.093Z,73.50
2022-08-05T01:37:57.857Z,75.29
2022-08-05T01:40:29.020Z,75.10
2022-08-05T01:42:52.852Z,74.25
2022-08-05T01:45:16.659Z,73.37
2022-08-05T01:47:43.146Z,72.92
2022-08-05T01:50:08.075Z,73.22
2022-08-05T01:52:38.660Z,73.61
2022-08-05T01:55:04.726Z,74.77
2022-08-05T01:58:18.883Z,74.14
2022-08-05T02:00:14.142Z,75.27
2022-08-05T02:02:51.156Z,76.29
2022-08-05T02:05:16.276Z,76.21
2022-08-05T02:07:39.161Z,74.86
2022-08-05T02:10:01.234Z,74.92
2022-08-05T02:12:33.290Z,74.16
2022-08-05T02:15:12.211Z,75.64
2022-08-05T02:18:30.790Z,75.41
2022-08-05T02:20:25.022Z,75.02
2022-08-05T02:22:55.936Z,75.28
2022-08-05T02:25:19.505Z,76.19
2022-08-05T02:27:59.461Z,75.77
2022-08-05T02:30:23.651Z,76.49
2022-08-05T02:32:52.586Z,80.49
2022-08-05T02:35:27.671Z,83.98
2022-08-05T02:37:53.974Z,86.25
2022-08-05T02:40:17.114Z,88.00
2022-08-05T02:42:39.388Z,89.09
2022-08-05T02:45:02.564Z,89.26
2022-08-05T02:48:07.091Z,89.99
2022-08-05T02:50:29.355Z,90.67
2022-08-05T02:52:53.107Z,92.48
2022-08-05T02:55:17.697Z,91.29
2022-08-05T02:58:11.119Z,91.27
2022-08-05T03:00:37.250Z,92.01
2022-08-05T03:03:01.771Z,92.07
2022-08-05T03:06:57.244Z,91.46
2022-08-05T03:08:11.501Z,92.49
2022-08-05T03:10:33.266Z,91.52
2022-08-05T03:12:55.153Z,91.85
2022-08-05T03:15:16.638Z,92.16
2022-08-05T03:17:41.545Z,91.99
2022-08-05T03:20:05.357Z,91.82
2022-08-05T03:22:32.224Z,93.45
2022-08-05T03:24:55.746Z,92.52
2022-08-05T03:27:24.191Z,92.82
2022-08-05T03:30:08.099Z,91.88
2022-08-05T03:32:31.452Z,92.32
2022-08-05T03:34:53.546Z,91.57
2022-08-05T03:37:15.586Z,92.97
2022-08-05T03:39:57.666Z,94.65
2022-08-05T03:42:18.914Z,93.26
2022-08-05T03:44:40.362Z,92.82
2022-08-05T03:47:01.840Z,94.00
2022-08-05T03:49:31.009Z,97.21
2022-08-05T03:52:39.017Z,97.10
2022-08-05T03:55:51.766Z,96.96
2022-08-05T03:57:44.766Z,96.90
2022-08-05T04:00:16.297Z,95.64
2022-08-05T04:02:57.697Z,96.23
2022-08-05T04:05:19.941Z,96.47
2022-08-05T04:07:57.063Z,98.04
2022-08-05T04:10:20.723Z,97.13
2022-08-05T04:15:02.915Z,95.80
2022-08-05T04:17:25.911Z,95.46
2022-08-05T04:20:07.504Z,95.37
2022-08-05T04:22:32.288Z,97.24
2022-08-05T04:24:56.287Z,97.36
2022-08-05T04:27:17.835Z,98.36
2022-08-05T04:29:41.566Z,99.74
2022-08-05T04:32:03.904Z,98.66
2022-08-05T04:34:32.284Z,98.01
2022-08-05T04:36:55.660Z,98.95
2022-08-05T04:39:18.852Z,100.00
2022-08-05T04:41:40.619Z,100.00
2022-08-05T04:44:09.532Z,100.00
2022-08-05T04:46:31.433Z,100.00
2022-08-05T04:48:52.907Z,100.00
2022-08-05T04:51:14.435Z,100.00
2022-08-05T04:53:35.899Z,100.00
2022-08-05T04:56:32.931Z,100.00
2022-08-05T04:58:38.802Z,100.00
2022-08-05T05:01:00.330Z,100.00
2022-08-05T05:03:22.154Z,100.00
2022-08-05T05:06:35.885Z,100.00
2022-08-05T05:08:30.090Z,100.00
2022-08-05T05:10:56.353Z,100.00
2022-08-05T05:13:18.367Z,100.00
2022-08-05T05:15:56.632Z,100.00
2022-08-05T05:18:31.135Z,100.00
2022-08-05T05:20:55.509Z,99.87
2022-08-05T05:23:19.947Z,100.00
2022-08-05T05:25:42.594Z,100.00
2022-08-05T05:28:04.349Z,100.00
2022-08-05T05:30:29.624Z,100.00
2022-08-05T05:32:53.422Z,98.92
2022-08-05T05:35:19.911Z,97.31
2022-08-05T05:38:00.088Z,99.10
2022-08-05T05:40:26.019Z,97.18
2022-08-05T05:42:48.283Z,98.53
2022-08-05T05:45:11.141Z,98.36
2022-08-05T05:48:05.354Z,96.99
2022-08-05T05:50:19.815Z,98.31
2022-08-05T05:52:42.365Z,98.16
2022-08-05T05:55:13.602Z,98.36
2022-08-05T05:57:42.744Z,98.67
2022-08-05T06:00:19.854Z,98.79
2022-08-05T06:02:41.629Z,99.41
2022-08-05T06:05:03.682Z,98.98
2022-08-05T06:07:42.110Z,97.91
2022-08-05T06:10:10.193Z,99.26
2022-08-05T06:12:32.389Z,99.28
2022-08-05T06:14:54.890Z,99.16
2022-08-05T06:17:22.573Z,98.23
2022-08-05T06:19:56.566Z,96.95
2022-08-05T06:22:25.962Z,96.14
2022-08-05T06:24:48.407Z,96.66
2022-08-05T06:28:09.218Z,96.32
2022-08-05T06:30:04.615Z,96.22
2022-08-05T06:32:33.470Z,95.38
2022-08-05T06:34:56.398Z,95.62
2022-08-05T06:37:18.690Z,94.74
2022-08-05T06:40:00.151Z,94.60
2022-08-05T06:42:24.189Z,95.54
2022-08-05T06:44:46.837Z,94.36
2022-08-05T06:47:30.041Z,95.57
2022-08-05T06:50:01.096Z,96.26
2022-08-05T06:52:37.789Z,96.10
2022-08-05T06:54:59.833Z,95.48
2022-08-05T06:57:57.496Z,94.96
2022-08-05T07:00:05.941Z,93.75
2022-08-05T07:02:31.327Z,93.03
2022-08-05T07:04:52.795Z,91.12
2022-08-05T07:07:15.174Z,92.12
2022-08-05T07:09:37.446Z,92.67
2022-08-05T07:12:02.190Z,91.68
2022-08-05T07:14:42.079Z,91.33
2022-08-05T07:17:59.467Z,90.89
2022-08-05T07:22:30.043Z,87.87
2022-08-05T07:24:52.653Z,88.05
2022-08-05T07:27:15.263Z,85.96
2022-08-05T07:30:28.453Z,83.45
2022-08-05T07:32:18.304Z,83.34
2022-08-05T07:34:47.832Z,82.98
2022-08-05T07:37:19.615Z,82.79
2022-08-05T07:40:04.063Z,77.83
2022-08-05T07:42:33.598Z,78.02
2022-08-05T07:44:56.047Z,79.77
2022-08-05T07:47:17.968Z,77.17
2022-08-05T07:49:43.588Z,74.03
2022-08-05T07:52:16.154Z,73.81
2022-08-05T07:54:38.629Z,69.58
2022-08-05T07:57:17.765Z,69.78
2022-08-05T07:59:46.966Z,70.66
2022-08-05T08:02:15.873Z,68.03
2022-08-05T08:04:38.976Z,69.85
2022-08-05T08:07:01.036Z,68.25
2022-08-05T08:09:29.062Z,62.62
2022-08-05T08:11:59.012Z,65.06
2022-08-05T08:14:23.474Z,65.63
2022-08-05T08:16:50.927Z,61.58
2022-08-05T08:19:18.723Z,63.04
2022-08-05T08:21:54.489Z,62.03
2022-08-05T08:24:15.969Z,61.45
2022-08-05T08:26:37.486Z,60.82
2022-08-05T08:29:29.488Z,57.52
2022-08-05T08:31:44.447Z,58.31
2022-08-05T08:34:07.677Z,59.96
2022-08-05T08:36:52.457Z,59.64
2022-08-05T08:39:15.025Z,58.15
2022-08-05T08:41:51.683Z,56.46
2022-08-05T08:45:22.799Z,56.50
2022-08-05T08:47:47.014Z,60.91
2022-08-05T08:50:14.162Z,59.95
2022-08-05T08:52:33.857Z,63.75
2022-08-05T08:54:55.713Z,61.24
2022-08-05T08:57:19.645Z,57.91
2022-08-05T08:59:47.452Z,56.25
2022-08-05T09:02:11.338Z,56.07
2022-08-05T09:04:58.224Z,56.16
2022-08-05T09:07:28.816Z,54.55
2022-08-05T09:09:50.904Z,58.60
2022-08-05T09:12:20.023Z,59.80
2022-08-05T09:14:56.989Z,59.34
2022-08-05T09:17:42.499Z,60.84
2022-08-05T09:20:05.716Z,56.99
2022-08-05T09:22:31.830Z,56.14
2022-08-05T09:25:13.528Z,54.94
2022-08-05T09:28:04.537Z,54.51
2022-08-05T09:30:25.990Z,54.39
2022-08-05T09:32:47.884Z,54.61
2022-08-05T09:35:12.663Z,53.71
2022-08-05T09:38:16.934Z,55.03
2022-08-05T09:40:41.190Z,54.31
2022-08-05T09:43:41.139Z,55.21
2022-08-05T09:46:08.937Z,51.20
2022-08-05T09:48:34.778Z,52.55
2022-08-05T09:51:14.987Z,54.12
2022-08-05T09:53:58.940Z,56.13
2022-08-05T09:56:26.856Z,53.17
2022-08-05T09:58:58.478Z,51.64
2022-08-05T10:01:22.558Z,51.92
2022-08-05T10:04:00.326Z,53.94
2022-08-05T10:06:21.997Z,52.22
2022-08-05T10:08:43.591Z,49.82
2022-08-05T10:11:16.400Z,51.38
2022-08-05T10:13:47.222Z,51.42
2022-08-05T10:16:33.824Z,52.03
2022-08-05T10:18:55.887Z,52.42
2022-08-05T10:21:18.639Z,51.49
2022-08-05T10:23:58.974Z,51.90
2022-08-05T10:26:24.448Z,50.99
2022-08-05T10:28:56.394Z,52.49
2022-08-05T10:32:54.991Z,54.81
2022-08-05T10:33:59.862Z,53.29
2022-08-05T10:36:23.533Z,54.13
2022-08-05T10:38:49.559Z,54.35
2022-08-05T10:41:46.410Z,55.20
2022-08-05T10:44:13.669Z,53.61
2022-08-05T10:46:54.036Z,55.65
2022-08-05T10:49:17.106Z,55.83
2022-08-05T10:51:53.107Z,55.46
2022-08-05T10:54:28.477Z,54.94
2022-08-05T10:56:55.897Z,53.66
2022-08-05T11:00:04.122Z,54.09
2022-08-05T11:02:38.088Z,53.79
2022-08-05T11:04:55.954Z,52.49
2022-08-05T11:07:18.710Z,54.17
2022-08-05T11:10:09.614Z,52.62
2022-08-05T11:12:45.461Z,53.60
2022-08-05T11:15:59.969Z,53.67
2022-08-05T11:18:27.289Z,50.62
2022-08-05T11:20:53.202Z,51.39
2022-08-05T11:24:14.662Z,50.41
2022-08-05T11:26:49.650Z,51.31
2022-08-05T11:29:35.908Z,52.96
2022-08-05T11:32:26.864Z,51.09
2022-08-05T11:34:54.029Z,51.88
2022-08-05T11:38:26.653Z,52.50
2022-08-05T11:41:00.392Z,53.92
2022-08-05T11:44:00.918Z,53.14
2022-08-05T11:46:27.171Z,53.06
2022-08-05T11:48:46.597Z,52.80
2022-08-05T11:51:14.563Z,52.27
2022-08-05T11:53:56.876Z,53.09
2022-08-05T11:56:18.396Z,51.92
2022-08-05T11:58:59.840Z,53.54
2022-08-05T12:01:23.239Z,53.29
2022-08-05T12:03:57.233Z,52.02
2022-08-05T12:06:22.329Z,50.88
2022-08-05T12:08:55.839Z,52.53
2022-08-05T12:11:28.346Z,52.44
2022-08-05T12:14:05.983Z,52.50
2022-08-05T12:16:38.527Z,51.67
2022-08-05T12:19:00.405Z,51.40
2022-08-05T12:21:42.132Z,51.14
2022-08-05T12:24:10.577Z,51.96
2022-08-05T12:26:33.015Z,51.29
2022-08-05T12:28:54.526Z,51.90
2022-08-05T12:31:23.690Z,52.15
2022-08-05T12:33:57.296Z,50.36
2022-08-05T12:36:19.920Z,50.67
2022-08-05T12:38:41.819Z,50.88
2022-08-05T12:41:03.602Z,51.55
2022-08-05T12:43:25.134Z,51.72
2022-08-05T12:45:55.478Z,51.26
2022-08-05T12:48:27.387Z,51.00
2022-08-05T12:52:11.074Z,50.42
2022-08-05T12:53:55.573Z,51.07
2022-08-05T12:56:34.024Z,52.05
2022-08-05T12:59:14.146Z,52.29
2022-08-05T13:02:01.517Z,52.22
2022-08-05T13:04:52.607Z,53.35
2022-08-05T13:07:54.698Z,51.65
2022-08-05T13:10:11.903Z,50.52
2022-08-05T13:12:50.789Z,50.74
2022-08-05T13:15:24.473Z,51.06
2022-08-05T13:17:59.197Z,51.89
2022-08-05T13:20:24.636Z,51.06
2022-08-05T13:22:50.233Z,52.10
2022-08-05T13:25:18.811Z,52.19
2022-08-05T13:27:42.626Z,53.93
2022-08-05T13:30:33.802Z,54.91
2022-08-05T13:32:50.383Z,51.37
2022-08-05T13:35:12.612Z,50.67
2022-08-05T13:37:35.966Z,51.60
2022-08-05T13:40:16.839Z,51.49
2022-08-05T13:42:41.850Z,52.01
2022-08-05T13:45:03.952Z,50.28
2022-08-05T13:47:35.530Z,47.93
2022-08-05T13:49:57.900Z,48.51
2022-08-05T13:52:29.740Z,49.20
2022-08-05T13:54:54.180Z,49.09
2022-08-05T13:57:16.997Z,49.68
2022-08-05T13:59:57.585Z,49.90
2022-08-05T14:02:26.663Z,49.40
2022-08-05T14:05:11.606Z,50.67
2022-08-05T14:08:01.223Z,51.29
2022-08-05T14:10:28.101Z,51.41
2022-08-05T14:12:50.826Z,53.27
2022-08-05T14:16:07.634Z,54.00
2022-08-05T14:17:59.741Z,53.40
2022-08-05T14:20:27.336Z,53.45
2022-08-05T14:22:50.330Z,53.49
2022-08-05T14:25:21.499Z,52.03
2022-08-05T14:27:47.297Z,51.79
2022-08-05T14:30:19.996Z,49.75
2022-08-05T14:32:43.032Z,49.76
2022-08-05T14:35:06.269Z,51.25
2022-08-05T14:37:44.764Z,50.85
2022-08-05T14:40:10.402Z,52.16
2022-08-05T14:42:36.368Z,53.04
2022-08-05T14:44:59.498Z,54.57
2022-08-05T14:48:03.701Z,57.61
2022-08-05T14:50:15.652Z,58.69
2022-08-05T14:52:52.365Z,61.02
2022-08-05T14:55:15.357Z,62.87
2022-08-05T14:57:54.663Z,63.97
2022-08-05T15:00:19.957Z,66.23
2022-08-05T15:02:41.613Z,66.92
2022-08-05T15:05:08.749Z,68.07
2022-08-05T15:08:08.881Z,68.36
2022-08-05T15:10:16.628Z,68.02
2022-08-05T15:12:59.416Z,69.03
2022-08-05T15:15:55.933Z,69.90
2022-08-05T15:18:03.882Z,69.81
2022-08-05T15:20:27.458Z,70.93
2022-08-05T15:22:52.239Z,71.21
2022-08-05T15:25:16.148Z,71.35
2022-08-05T15:27:52.460Z,71.12
2022-08-05T15:30:16.475Z,71.94
2022-08-05T15:32:38.153Z,72.43
2022-08-05T15:35:04.097Z,73.95
2022-08-05T15:38:32.282Z,73.41
2022-08-05T15:40:59.097Z,74.49
2022-08-05T15:43:01.569Z,73.07
2022-08-05T15:45:37.816Z,74.29
2022-08-05T15:48:03.499Z,75.05
2022-08-05T15:50:25.187Z,75.69
2022-08-05T15:52:53.128Z,76.40
2022-08-05T15:55:17.597Z,76.88
2022-08-05T15:57:41.572Z,75.67
2022-08-05T16:00:08.231Z,75.16
2022-08-05T16:02:29.926Z,74.98
2022-08-05T16:04:52.824Z,74.78
2022-08-05T16:07:14.943Z,73.39
2022-08-05T16:09:36.568Z,73.70
2022-08-05T16:11:58.067Z,71.25
2022-08-05T16:14:19.837Z,70.50
2022-08-05T16:16:41.647Z,70.33
2022-08-05T16:19:03.658Z,69.99
2022-08-05T16:21:59.965Z,68.99
2022-08-05T16:24:07.560Z,69.59
2022-08-05T16:26:34.482Z,68.18
2022-08-05T16:28:56.518Z,67.36
2022-08-05T16:31:18.012Z,67.17
2022-08-05T16:33:41.582Z,67.69
2022-08-05T16:36:05.109Z,68.80
2022-08-05T16:38:28.166Z,68.73
2022-08-05T16:40:55.515Z,69.66
2022-08-05T16:43:23.774Z,70.43
2022-08-05T16:46:04.677Z,71.16
2022-08-05T16:48:33.985Z,71.28
2022-08-05T16:50:59.200Z,70.47
2022-08-05T16:53:31.922Z,70.86
2022-08-05T16:55:54.125Z,69.88
2022-08-05T16:58:19.930Z,68.69
2022-08-05T17:00:41.617Z,69.21
2022-08-05T17:03:15.280Z,68.13
2022-08-05T17:05:41.899Z,68.62
2022-08-05T17:08:03.474Z,68.39
2022-08-05T17:10:26.445Z,67.97
2022-08-05T17:12:52.426Z,68.44
2022-08-05T17:15:15.525Z,68.09
2022-08-05T17:17:42.088Z,68.58
2022-08-05T17:20:07.495Z,68.61
2022-08-05T17:22:29.481Z,69.18
2022-08-05T17:24:57.702Z,69.29
2022-08-05T17:27:20.077Z,69.09
2022-08-05T17:29:41.830Z,68.60
2022-08-05T17:32:03.645Z,70.21
2022-08-05T17:34:30.008Z,69.06
2022-08-05T17:36:54.034Z,68.68
2022-08-05T17:39:24.312Z,68.73
2022-08-05T17:42:19.729Z,65.59
2022-08-05T17:44:36.478Z,66.28
2022-08-05T17:46:57.944Z,64.47
2022-08-05T17:49:19.510Z,63.94
2022-08-05T17:51:46.060Z,64.23
2022-08-05T17:54:11.551Z,62.79
2022-08-05T17:56:35.798Z,61.74
2022-08-05T17:58:58.255Z,61.55
2022-08-05T18:01:19.811Z,60.59
2022-08-05T18:03:57.814Z,57.15
2022-08-05T18:06:29.514Z,56.99
2022-08-05T18:08:53.147Z,56.19
2022-08-05T18:11:23.952Z,55.54
2022-08-05T18:13:54.355Z,54.45
2022-08-05T18:16:18.075Z,53.53
2022-08-05T18:18:42.131Z,53.66
2022-08-05T18:21:13.266Z,52.84
2022-08-05T18:23:47.047Z,52.65
2022-08-05T18:26:08.767Z,52.67
2022-08-05T18:28:30.302Z,52.47
2022-08-05T18:30:52.737Z,51.72
2022-08-05T18:33:14.925Z,51.45
2022-08-05T18:36:00.640Z,51.77
2022-08-05T18:38:25.907Z,52.15
2022-08-05T18:41:57.001Z,52.51
2022-08-05T18:43:31.530Z,52.53
2022-08-05T18:46:00.419Z,52.69
2022-08-05T18:48:31.293Z,52.73
2022-08-05T18:52:04.583Z,54.25
2022-08-05T18:53:54.660Z,54.91
2022-08-05T18:56:16.200Z,55.34
2022-08-05T18:58:37.702Z,54.80
2022-08-05T19:01:04.630Z,55.09
2022-08-05T19:03:53.461Z,54.40
2022-08-05T19:06:18.753Z,54.63
2022-08-05T19:08:44.029Z,54.47
2022-08-05T19:11:09.888Z,55.24
2022-08-05T19:13:35.589Z,56.17
2022-08-05T19:16:03.626Z,54.68
2022-08-05T19:18:25.557Z,55.05
2022-08-05T19:20:48.281Z,55.86
2022-08-05T19:23:22.714Z,56.93
2022-08-05T19:25:51.201Z,55.62
2022-08-05T19:28:23.728Z,55.93
2022-08-05T19:30:49.489Z,55.73
2022-08-05T19:33:12.942Z,55.96
2022-08-05T19:35:56.006Z,56.05
2022-08-05T19:38:26.541Z,56.46
2022-08-05T19:40:48.376Z,56.47
2022-08-05T19:44:03.944Z,57.19
2022-08-05T19:45:56.185Z,56.98
2022-08-05T19:48:17.804Z,57.71
2022-08-05T19:50:41.234Z,58.06
2022-08-05T19:53:09.276Z,57.80
2022-08-05T19:56:14.954Z,58.25
2022-08-05T19:58:28.817Z,59.18
2022-08-05T20:00:52.708Z,59.79
2022-08-05T20:03:14.320Z,59.44
2022-08-05T20:05:49.830Z,59.62
2022-08-05T20:08:12.140Z,60.22
2022-08-05T20:10:35.749Z,60.69
2022-08-05T20:12:58.478Z,60.76
2022-08-05T20:15:48.876Z,60.96
2022-08-05T20:18:10.738Z,61.51
2022-08-05T20:20:47.362Z,62.28
2022-08-05T20:23:08.842Z,62.17
2022-08-05T20:25:40.128Z,61.90
2022-08-05T20:28:01.765Z,62.34
2022-08-05T20:30:23.848Z,63.33
2022-08-05T20:32:47.965Z,63.06
2022-08-05T20:35:09.620Z,63.39
2022-08-05T20:38:06.255Z,63.69
2022-08-05T20:40:15.213Z,64.12
2022-08-05T20:42:39.760Z,64.84
2022-08-05T20:45:06.283Z,64.78
2022-08-05T20:47:31.737Z,65.15
2022-08-05T20:49:54.019Z,65.95
2022-08-05T20:52:16.963Z,66.33
2022-08-05T20:54:42.847Z,66.18
2022-08-05T20:57:42.037Z,67.00
2022-08-05T21:00:19.756Z,66.81
2022-08-05T21:02:51.453Z,68.55
2022-08-05T21:05:13.781Z,67.97
2022-08-05T21:07:50.773Z,67.92
2022-08-05T21:10:14.004Z,67.45
2022-08-05T21:12:36.570Z,68.89
2022-08-05T21:15:00.645Z,70.12
2022-08-05T21:17:22.174Z,71.80
2022-08-05T21:19:47.948Z,70.82
2022-08-05T21:22:12.146Z,71.73
2022-08-05T21:24:35.896Z,71.29
2022-08-05T21:26:58.342Z,71.77
2022-08-05T21:29:20.315Z,72.64
2022-08-05T21:31:47.853Z,72.18
2022-08-05T21:34:10.439Z,72.38
2022-08-05T21:36:32.899Z,73.18
2022-08-05T21:38:54.832Z,74.54
2022-08-05T21:41:16.572Z,75.89
2022-08-05T21:43:42.398Z,75.31
2022-08-05T21:46:12.604Z,75.10
2022-08-05T21:48:35.413Z,74.79
2022-08-05T21:50:57.570Z,75.53
2022-08-05T21:53:19.040Z,74.25
2022-08-05T21:56:01.136Z,75.70
2022-08-05T21:58:24.953Z,76.70
2022-08-05T22:00:53.775Z,76.56
2022-08-05T22:03:15.300Z,76.68
2022-08-05T22:05:48.406Z,77.12
2022-08-05T22:08:22.159Z,78.31
2022-08-05T22:10:45.851Z,77.36
2022-08-05T22:14:06.121Z,76.51
2022-08-05T22:16:00.445Z,78.43
2022-08-05T22:18:26.333Z,77.43
2022-08-05T22:20:51.575Z,78.40
2022-08-05T22:24:01.815Z,78.75
2022-08-05T22:26:32.703Z,80.02
2022-08-05T22:28:55.123Z,79.11
2022-08-05T22:31:16.596Z,80.73
2022-08-05T22:33:58.606Z,80.89
2022-08-05T22:36:19.593Z,79.63
2022-08-05T22:38:48.202Z,80.36
2022-08-05T22:41:10.836Z,82.08
2022-08-05T22:43:37.504Z,81.97
2022-08-05T22:45:59.552Z,82.11
2022-08-05T22:48:22.185Z,82.01
2022-08-05T22:50:56.228Z,81.26
2022-08-05T22:53:18.136Z,81.93
2022-08-05T22:55:56.953Z,81.14
2022-08-05T22:58:28.249Z,80.98
2022-08-05T23:00:50.361Z,80.90
2022-08-05T23:03:13.514Z,81.43
2022-08-05T23:05:36.079Z,81.34
2022-08-05T23:07:57.816Z,81.47
2022-08-05T23:10:23.930Z,82.08
2022-08-05T23:12:45.779Z,82.37
2022-08-05T23:15:08.919Z,82.77
2022-08-05T23:17:37.151Z,81.61
2022-08-05T23:20:02.421Z,82.77
2022-08-05T23:22:27.508Z,82.77
2022-08-05T23:24:51.216Z,83.29
2022-08-05T23:27:12.912Z,83.45
2022-08-05T23:29:34.888Z,83.75
2022-08-05T23:31:58.082Z,82.83
2022-08-05T23:34:24.484Z,82.36
2022-08-05T23:36:46.639Z,82.96
2022-08-05T23:39:08.327Z,83.81
2022-08-05T23:41:29.949Z,84.05
2022-08-05T23:44:05.623Z,83.88
2022-08-05T23:46:30.091Z,82.77
2022-08-05T23:48:59.666Z,82.50
2022-08-05T23:51:23.295Z,83.78
2022-08-05T23:53:46.455Z,84.63
2022-08-05T23:56:08.649Z,84.50
2022-08-05T23:58:32.130Z,82.65
